sensor_id;sensor_type;location;lat;lon;timestamp;temperature;humidity
19781;DHT22;10050;55.492;13.506;2024-01-06T00:01:01;-3.60;99.90
19781;DHT22;10050;55.492;13.506;2024-01-06T00:03:27;-3.70;99.90
19781;DHT22;10050;55.492;13.506;2024-01-06T00:05:52;-3.80;99.90
19781;DHT22;10050;55.492;13.506;2024-01-06T00:08:18;-3.90;99.90
19781;DHT22;10050;55.492;13.506;2024-01-06T00:10:43;-3.90;99.90
19781;DHT22;10050;55.492;13.506;2024-01-06T00:13:10;-3.90;99.90
19781;DHT22;10050;55.492;13.506;2024-01-06T00:15:36;-3.90;99.90
19781;DHT22;10050;55.492;13.506;2024-01-06T00:18:02;-4.00;99.90
19781;DHT22;10050;55.492;13.506;2024-01-06T00:20:27;-4.00;99.90
19781;DHT22;10050;55.492;13.506;2024-01-06T00:22:53;-4.00;99.90
19781;DHT22;10050;55.492;13.506;2024-01-06T00:25:20;-4.10;99.90
19781;DHT22;10050;55.492;13.506;2024-01-06T00:27:49;-4.10;99.90
19781;DHT22;10050;55.492;13.506;2024-01-06T00:30:15;-4.20;99.90
19781;DHT22;10050;55.492;13.506;2024-01-06T00:32:40;-4.20;99.90
19781;DHT22;10050;55.492;13.506;2024-01-06T00:35:06;-4.20;99.90
19781;DHT22;10050;55.492;13.506;2024-01-06T00:37:32;-4.30;99.90
19781;DHT22;10050;55.492;13.506;2024-01-06T00:39:57;-4.30;99.90
19781;DHT22;10050;55.492;13.506;2024-01-06T00:42:23;-4.30;99.90
19781;DHT22;10050;55.492;13.506;2024-01-06T00:44:49;-4.30;99.90
19781;DHT22;10050;55.492;13.506;2024-01-06T00:47:14;-4.30;99.90
19781;DHT22;10050;55.492;13.506;2024-01-06T00:49:40;-4.30;99.90
19781;DHT22;10050;55.492;13.506;2024-01-06T00:52:05;-4.40;99.90
19781;DHT22;10050;55.492;13.506;2024-01-06T00:54:31;-4.40;99.90
19781;DHT22;10050;55.492;13.506;2024-01-06T00:56:57;-4.40;99.90
19781;DHT22;10050;55.492;13.506;2024-01-06T00:59:22;-4.50;99.90
19781;DHT22;10050;55.492;13.506;2024-01-06T01:01:48;-4.50;99.90
19781;DHT22;10050;55.492;13.506;2024-01-06T01:04:13;-4.40;99.90
19781;DHT22;10050;55.492;13.506;2024-01-06T01:06:39;-4.50;99.90
19781;DHT22;10050;55.492;13.506;2024-01-06T01:09:05;-4.50;99.90
19781;DHT22;10050;55.492;13.506;2024-01-06T01:11:31;-4.50;99.90
19781;DHT22;10050;55.492;13.506;2024-01-06T01:13:56;-4.50;99.90
19781;DHT22;10050;55.492;13.506;2024-01-06T01:16:22;-4.50;99.90
19781;DHT22;10050;55.492;13.506;2024-01-06T01:18:47;-4.50;99.90
19781;DHT22;10050;55.492;13.506;2024-01-06T01:21:14;-4.50;99.90
19781;DHT22;10050;55.492;13.506;2024-01-06T01:23:40;-4.50;99.90
19781;DHT22;10050;55.492;13.506;2024-01-06T01:26:05;-4.50;99.90
19781;DHT22;10050;55.492;13.506;2024-01-06T01:28:32;-4.60;99.90
19781;DHT22;10050;55.492;13.506;2024-01-06T01:30:57;-4.50;99.90
19781;DHT22;10050;55.492;13.506;2024-01-06T01:33:23;-4.50;99.90
19781;DHT22;10050;55.492;13.506;2024-01-06T01:35:49;-4.60;99.90
19781;DHT22;10050;55.492;13.506;2024-01-06T01:38:15;-4.60;99.90
19781;DHT22;10050;55.492;13.506;2024-01-06T01:40:40;-4.60;99.90
19781;DHT22;10050;55.492;13.506;2024-01-06T01:43:06;-4.60;99.90
19781;DHT22;10050;55.492;13.506;2024-01-06T01:45:40;-4.60;99.90
19781;DHT22;10050;55.492;13.506;2024-01-06T01:48:06;-4.70;99.90
19781;DHT22;10050;55.492;13.506;2024-01-06T01:50:32;-4.70;99.90
19781;DHT22;10050;55.492;13.506;2024-01-06T01:52:58;-4.60;99.90
19781;DHT22;10050;55.492;13.506;2024-01-06T01:55:24;-4.70;99.90
19781;DHT22;10050;55.492;13.506;2024-01-06T01:57:50;-4.70;99.90
19781;DHT22;10050;55.492;13.506;2024-01-06T02:00:16;-4.70;99.90
19781;DHT22;10050;55.492;13.506;2024-01-06T02:02:41;-4.70;99.90
19781;DHT22;10050;55.492;13.506;2024-01-06T02:05:07;-4.70;99.90
19781;DHT22;10050;55.492;13.506;2024-01-06T02:07:33;-4.60;99.90
19781;DHT22;10050;55.492;13.506;2024-01-06T02:09:58;-4.60;99.90
19781;DHT22;10050;55.492;13.506;2024-01-06T02:12:24;-4.70;99.90
19781;DHT22;10050;55.492;13.506;2024-01-06T02:14:50;-4.70;99.90
19781;DHT22;10050;55.492;13.506;2024-01-06T02:17:15;-4.70;99.90
19781;DHT22;10050;55.492;13.506;2024-01-06T02:19:41;-4.60;99.90
19781;DHT22;10050;55.492;13.506;2024-01-06T02:22:06;-4.60;99.90
19781;DHT22;10050;55.492;13.506;2024-01-06T02:24:32;-4.60;99.90
19781;DHT22;10050;55.492;13.506;2024-01-06T02:26:58;-4.60;99.90
19781;DHT22;10050;55.492;13.506;2024-01-06T02:29:23;-4.70;99.90
19781;DHT22;10050;55.492;13.506;2024-01-06T02:31:49;-4.70;99.90
19781;DHT22;10050;55.492;13.506;2024-01-06T02:34:14;-4.70;99.90
19781;DHT22;10050;55.492;13.506;2024-01-06T02:36:40;-4.70;99.90
19781;DHT22;10050;55.492;13.506;2024-01-06T02:39:05;-4.70;99.90
19781;DHT22;10050;55.492;13.506;2024-01-06T02:41:31;-4.70;99.90
19781;DHT22;10050;55.492;13.506;2024-01-06T02:43:57;-4.70;99.90
19781;DHT22;10050;55.492;13.506;2024-01-06T02:46:23;-4.70;99.90
19781;DHT22;10050;55.492;13.506;2024-01-06T02:48:49;-4.70;99.90
19781;DHT22;10050;55.492;13.506;2024-01-06T02:51:14;-4.70;99.90
19781;DHT22;10050;55.492;13.506;2024-01-06T02:53:40;-4.70;99.90
19781;DHT22;10050;55.492;13.506;2024-01-06T02:56:10;-4.70;99.90
19781;DHT22;10050;55.492;13.506;2024-01-06T02:58:36;-4.70;99.90
19781;DHT22;10050;55.492;13.506;2024-01-06T03:01:01;-4.70;99.90
19781;DHT22;10050;55.492;13.506;2024-01-06T03:03:27;-4.70;99.90
19781;DHT22;10050;55.492;13.506;2024-01-06T03:05:52;-4.70;99.90
19781;DHT22;10050;55.492;13.506;2024-01-06T03:08:18;-4.70;99.90
19781;DHT22;10050;55.492;13.506;2024-01-06T03:10:44;-4.70;99.90
19781;DHT22;10050;55.492;13.506;2024-01-06T03:13:09;-4.60;99.90
19781;DHT22;10050;55.492;13.506;2024-01-06T03:15:35;-4.60;99.90
19781;DHT22;10050;55.492;13.506;2024-01-06T03:18:01;-4.70;99.90
19781;DHT22;10050;55.492;13.506;2024-01-06T03:20:26;-4.60;99.90
19781;DHT22;10050;55.492;13.506;2024-01-06T03:22:52;-4.60;99.90
19781;DHT22;10050;55.492;13.506;2024-01-06T03:25:17;-4.70;99.90
19781;DHT22;10050;55.492;13.506;2024-01-06T03:27:43;-4.70;99.90
19781;DHT22;10050;55.492;13.506;2024-01-06T03:30:09;-4.70;99.90
19781;DHT22;10050;55.492;13.506;2024-01-06T03:32:35;-4.70;99.90
19781;DHT22;10050;55.492;13.506;2024-01-06T03:35:01;-4.70;99.90
19781;DHT22;10050;55.492;13.506;2024-01-06T03:37:26;-4.70;99.90
19781;DHT22;10050;55.492;13.506;2024-01-06T03:39:52;-4.70;99.90
19781;DHT22;10050;55.492;13.506;2024-01-06T03:42:18;-4.80;99.90
19781;DHT22;10050;55.492;13.506;2024-01-06T03:44:44;-4.80;99.90
19781;DHT22;10050;55.492;13.506;2024-01-06T03:47:10;-4.90;99.90
19781;DHT22;10050;55.492;13.506;2024-01-06T03:49:36;-4.90;99.90
19781;DHT22;10050;55.492;13.506;2024-01-06T03:52:01;-4.90;99.90
19781;DHT22;10050;55.492;13.506;2024-01-06T03:54:27;-4.90;99.90
19781;DHT22;10050;55.492;13.506;2024-01-06T03:56:52;-4.90;99.90
19781;DHT22;10050;55.492;13.506;2024-01-06T03:59:18;-5.00;99.90
19781;DHT22;10050;55.492;13.506;2024-01-06T04:01:43;-5.00;99.90
19781;DHT22;10050;55.492;13.506;2024-01-06T04:04:09;-5.00;99.90
19781;DHT22;10050;55.492;13.506;2024-01-06T04:06:34;-5.10;99.90
19781;DHT22;10050;55.492;13.506;2024-01-06T04:09:01;-5.10;99.90
19781;DHT22;10050;55.492;13.506;2024-01-06T04:11:27;-5.10;99.90
19781;DHT22;10050;55.492;13.506;2024-01-06T04:13:52;-5.20;99.90
19781;DHT22;10050;55.492;13.506;2024-01-06T04:16:18;-5.20;99.90
19781;DHT22;10050;55.492;13.506;2024-01-06T04:18:44;-5.30;99.90
19781;DHT22;10050;55.492;13.506;2024-01-06T04:21:10;-5.30;99.90
19781;DHT22;10050;55.492;13.506;2024-01-06T04:23:36;-5.30;99.90
19781;DHT22;10050;55.492;13.506;2024-01-06T04:26:02;-5.30;99.90
19781;DHT22;10050;55.492;13.506;2024-01-06T04:28:29;-5.30;99.90
19781;DHT22;10050;55.492;13.506;2024-01-06T04:30:54;-5.30;99.90
19781;DHT22;10050;55.492;13.506;2024-01-06T04:33:20;-5.30;99.90
19781;DHT22;10050;55.492;13.506;2024-01-06T04:35:45;-5.30;99.90
19781;DHT22;10050;55.492;13.506;2024-01-06T04:38:11;-5.30;99.90
19781;DHT22;10050;55.492;13.506;2024-01-06T04:40:37;-5.30;99.90
19781;DHT22;10050;55.492;13.506;2024-01-06T04:43:02;-5.30;99.90
19781;DHT22;10050;55.492;13.506;2024-01-06T04:45:29;-5.40;99.90
19781;DHT22;10050;55.492;13.506;2024-01-06T04:47:54;-5.40;99.90
19781;DHT22;10050;55.492;13.506;2024-01-06T04:50:20;-5.40;99.90
19781;DHT22;10050;55.492;13.506;2024-01-06T04:52:45;-5.40;99.90
19781;DHT22;10050;55.492;13.506;2024-01-06T04:55:11;-5.40;99.90
19781;DHT22;10050;55.492;13.506;2024-01-06T04:57:37;-5.50;99.90
19781;DHT22;10050;55.492;13.506;2024-01-06T05:00:04;-5.50;99.90
19781;DHT22;10050;55.492;13.506;2024-01-06T05:02:29;-5.50;99.90
19781;DHT22;10050;55.492;13.506;2024-01-06T05:04:55;-5.60;99.90
19781;DHT22;10050;55.492;13.506;2024-01-06T05:07:21;-5.60;99.90
19781;DHT22;10050;55.492;13.506;2024-01-06T05:09:47;-5.70;99.90
19781;DHT22;10050;55.492;13.506;2024-01-06T05:12:12;-5.70;99.90
19781;DHT22;10050;55.492;13.506;2024-01-06T05:14:38;-5.80;99.90
19781;DHT22;10050;55.492;13.506;2024-01-06T05:17:03;-5.80;99.90
19781;DHT22;10050;55.492;13.506;2024-01-06T05:19:29;-5.90;99.90
19781;DHT22;10050;55.492;13.506;2024-01-06T05:21:55;-5.90;99.90
19781;DHT22;10050;55.492;13.506;2024-01-06T05:24:21;-5.90;99.90
19781;DHT22;10050;55.492;13.506;2024-01-06T05:26:46;-6.00;99.90
19781;DHT22;10050;55.492;13.506;2024-01-06T05:29:12;-5.90;99.90
19781;DHT22;10050;55.492;13.506;2024-01-06T05:31:37;-6.00;99.90
19781;DHT22;10050;55.492;13.506;2024-01-06T05:34:03;-6.10;99.90
19781;DHT22;10050;55.492;13.506;2024-01-06T05:36:30;-6.10;99.90
19781;DHT22;10050;55.492;13.506;2024-01-06T05:38:55;-6.10;99.90
19781;DHT22;10050;55.492;13.506;2024-01-06T05:41:21;-6.10;99.90
19781;DHT22;10050;55.492;13.506;2024-01-06T05:43:46;-6.10;99.90
19781;DHT22;10050;55.492;13.506;2024-01-06T05:46:23;-6.10;99.90
19781;DHT22;10050;55.492;13.506;2024-01-06T05:48:49;-6.10;99.90
19781;DHT22;10050;55.492;13.506;2024-01-06T05:51:15;-6.30;99.90
19781;DHT22;10050;55.492;13.506;2024-01-06T05:53:40;-6.30;99.90
19781;DHT22;10050;55.492;13.506;2024-01-06T05:56:07;-6.30;99.90
19781;DHT22;10050;55.492;13.506;2024-01-06T05:58:34;-6.30;99.90
19781;DHT22;10050;55.492;13.506;2024-01-06T06:01:00;-6.40;99.90
19781;DHT22;10050;55.492;13.506;2024-01-06T06:03:25;-6.40;99.90
19781;DHT22;10050;55.492;13.506;2024-01-06T06:05:51;-6.50;99.90
19781;DHT22;10050;55.492;13.506;2024-01-06T06:08:16;-6.50;99.90
19781;DHT22;10050;55.492;13.506;2024-01-06T06:10:42;-6.50;99.90
19781;DHT22;10050;55.492;13.506;2024-01-06T06:13:25;-6.50;99.90
19781;DHT22;10050;55.492;13.506;2024-01-06T06:15:50;-6.50;99.90
19781;DHT22;10050;55.492;13.506;2024-01-06T06:18:16;-6.50;99.90
19781;DHT22;10050;55.492;13.506;2024-01-06T06:20:42;-6.40;99.90
19781;DHT22;10050;55.492;13.506;2024-01-06T06:23:09;-6.30;99.90
19781;DHT22;10050;55.492;13.506;2024-01-06T06:25:36;-6.20;99.90
19781;DHT22;10050;55.492;13.506;2024-01-06T06:28:02;-6.30;99.90
19781;DHT22;10050;55.492;13.506;2024-01-06T06:30:28;-6.20;99.90
19781;DHT22;10050;55.492;13.506;2024-01-06T06:32:54;-6.30;99.90
19781;DHT22;10050;55.492;13.506;2024-01-06T06:35:20;-6.30;99.90
19781;DHT22;10050;55.492;13.506;2024-01-06T06:37:45;-6.30;99.90
19781;DHT22;10050;55.492;13.506;2024-01-06T06:40:11;-6.40;99.90
19781;DHT22;10050;55.492;13.506;2024-01-06T06:42:37;-6.30;99.90
19781;DHT22;10050;55.492;13.506;2024-01-06T06:45:02;-6.40;99.90
19781;DHT22;10050;55.492;13.506;2024-01-06T06:47:28;-6.40;99.90
19781;DHT22;10050;55.492;13.506;2024-01-06T06:49:54;-6.30;99.90
19781;DHT22;10050;55.492;13.506;2024-01-06T06:52:19;-6.20;99.90
19781;DHT22;10050;55.492;13.506;2024-01-06T06:54:45;-6.20;99.90
19781;DHT22;10050;55.492;13.506;2024-01-06T06:57:10;-6.20;99.90
19781;DHT22;10050;55.492;13.506;2024-01-06T06:59:37;-6.30;99.90
19781;DHT22;10050;55.492;13.506;2024-01-06T07:02:02;-6.40;99.90
19781;DHT22;10050;55.492;13.506;2024-01-06T07:04:28;-6.50;99.90
19781;DHT22;10050;55.492;13.506;2024-01-06T07:06:54;-6.50;99.90
19781;DHT22;10050;55.492;13.506;2024-01-06T07:09:20;-6.50;99.90
19781;DHT22;10050;55.492;13.506;2024-01-06T07:11:48;-6.60;99.90
19781;DHT22;10050;55.492;13.506;2024-01-06T07:14:14;-6.70;99.90
19781;DHT22;10050;55.492;13.506;2024-01-06T07:16:39;-6.70;99.90
19781;DHT22;10050;55.492;13.506;2024-01-06T07:19:05;-6.80;99.90
19781;DHT22;10050;55.492;13.506;2024-01-06T07:21:31;-6.70;99.90
19781;DHT22;10050;55.492;13.506;2024-01-06T07:23:56;-6.60;99.90
19781;DHT22;10050;55.492;13.506;2024-01-06T07:26:22;-6.50;99.90
19781;DHT22;10050;55.492;13.506;2024-01-06T07:28:47;-6.40;99.90
19781;DHT22;10050;55.492;13.506;2024-01-06T07:31:14;-6.40;99.90
19781;DHT22;10050;55.492;13.506;2024-01-06T07:33:40;-6.60;99.90
19781;DHT22;10050;55.492;13.506;2024-01-06T07:36:05;-6.50;99.90
19781;DHT22;10050;55.492;13.506;2024-01-06T07:38:31;-6.60;99.90
19781;DHT22;10050;55.492;13.506;2024-01-06T07:40:57;-6.40;99.90
19781;DHT22;10050;55.492;13.506;2024-01-06T07:43:22;-6.50;99.90
19781;DHT22;10050;55.492;13.506;2024-01-06T07:45:48;-6.40;99.90
19781;DHT22;10050;55.492;13.506;2024-01-06T07:48:14;-6.30;99.90
19781;DHT22;10050;55.492;13.506;2024-01-06T07:50:40;-6.30;99.90
19781;DHT22;10050;55.492;13.506;2024-01-06T07:53:06;-6.30;99.90
19781;DHT22;10050;55.492;13.506;2024-01-06T07:55:31;-6.40;99.90
19781;DHT22;10050;55.492;13.506;2024-01-06T07:57:57;-6.40;99.90
19781;DHT22;10050;55.492;13.506;2024-01-06T08:00:22;-6.30;99.90
19781;DHT22;10050;55.492;13.506;2024-01-06T08:02:48;-6.20;99.90
19781;DHT22;10050;55.492;13.506;2024-01-06T08:05:13;-6.10;99.90
19781;DHT22;10050;55.492;13.506;2024-01-06T08:07:40;-6.10;99.90
19781;DHT22;10050;55.492;13.506;2024-01-06T08:10:06;-6.10;99.90
19781;DHT22;10050;55.492;13.506;2024-01-06T08:12:31;-5.10;99.90
19781;DHT22;10050;55.492;13.506;2024-01-06T08:14:57;-2.60;99.90
19781;DHT22;10050;55.492;13.506;2024-01-06T08:17:23;-0.50;99.90
19781;DHT22;10050;55.492;13.506;2024-01-06T08:19:48;1.10;99.90
19781;DHT22;10050;55.492;13.506;2024-01-06T08:22:14;0.00;99.90
19781;DHT22;10050;55.492;13.506;2024-01-06T08:24:40;-0.90;99.90
19781;DHT22;10050;55.492;13.506;2024-01-06T08:27:05;-0.90;99.90
19781;DHT22;10050;55.492;13.506;2024-01-06T08:29:31;0.70;99.90
19781;DHT22;10050;55.492;13.506;2024-01-06T08:31:57;2.70;99.90
19781;DHT22;10050;55.492;13.506;2024-01-06T08:34:23;4.80;99.90
19781;DHT22;10050;55.492;13.506;2024-01-06T08:36:49;4.20;99.90
19781;DHT22;10050;55.492;13.506;2024-01-06T08:39:14;4.80;99.90
19781;DHT22;10050;55.492;13.506;2024-01-06T08:41:40;4.90;99.90
19781;DHT22;10050;55.492;13.506;2024-01-06T08:44:06;5.30;99.90
19781;DHT22;10050;55.492;13.506;2024-01-06T08:46:32;5.60;99.90
19781;DHT22;10050;55.492;13.506;2024-01-06T08:48:57;4.80;99.90
19781;DHT22;10050;55.492;13.506;2024-01-06T08:51:25;3.80;99.90
19781;DHT22;10050;55.492;13.506;2024-01-06T08:53:52;3.80;99.90
19781;DHT22;10050;55.492;13.506;2024-01-06T08:56:17;2.50;99.90
19781;DHT22;10050;55.492;13.506;2024-01-06T08:58:43;1.00;99.90
19781;DHT22;10050;55.492;13.506;2024-01-06T09:01:09;-0.80;99.90
19781;DHT22;10050;55.492;13.506;2024-01-06T09:03:34;-1.70;99.90
19781;DHT22;10050;55.492;13.506;2024-01-06T09:06:00;-2.30;99.90
19781;DHT22;10050;55.492;13.506;2024-01-06T09:08:26;-2.70;99.90
19781;DHT22;10050;55.492;13.506;2024-01-06T09:10:51;-3.00;99.90
19781;DHT22;10050;55.492;13.506;2024-01-06T09:13:21;-3.20;99.90
19781;DHT22;10050;55.492;13.506;2024-01-06T09:15:47;-3.30;99.90
19781;DHT22;10050;55.492;13.506;2024-01-06T09:18:12;-2.70;99.90
19781;DHT22;10050;55.492;13.506;2024-01-06T09:20:38;-2.80;99.90
19781;DHT22;10050;55.492;13.506;2024-01-06T09:23:04;-2.60;99.90
19781;DHT22;10050;55.492;13.506;2024-01-06T09:25:29;-0.90;99.90
19781;DHT22;10050;55.492;13.506;2024-01-06T09:27:55;1.40;99.90
19781;DHT22;10050;55.492;13.506;2024-01-06T09:30:21;2.20;99.90
19781;DHT22;10050;55.492;13.506;2024-01-06T09:32:46;3.10;99.90
19781;DHT22;10050;55.492;13.506;2024-01-06T09:35:12;4.00;99.90
19781;DHT22;10050;55.492;13.506;2024-01-06T09:37:38;4.50;99.90
19781;DHT22;10050;55.492;13.506;2024-01-06T09:40:03;3.60;99.90
19781;DHT22;10050;55.492;13.506;2024-01-06T09:42:29;3.20;99.90
19781;DHT22;10050;55.492;13.506;2024-01-06T09:44:55;2.10;99.90
19781;DHT22;10050;55.492;13.506;2024-01-06T09:47:22;1.00;99.90
19781;DHT22;10050;55.492;13.506;2024-01-06T09:49:49;-0.30;99.90
19781;DHT22;10050;55.492;13.506;2024-01-06T09:52:20;-1.00;99.90
19781;DHT22;10050;55.492;13.506;2024-01-06T09:54:52;-1.80;99.90
19781;DHT22;10050;55.492;13.506;2024-01-06T09:57:18;-2.00;99.90
19781;DHT22;10050;55.492;13.506;2024-01-06T09:59:47;-1.90;99.90
19781;DHT22;10050;55.492;13.506;2024-01-06T10:02:16;-1.60;99.90
19781;DHT22;10050;55.492;13.506;2024-01-06T10:04:45;-1.30;99.90
19781;DHT22;10050;55.492;13.506;2024-01-06T10:07:11;-0.40;99.90
19781;DHT22;10050;55.492;13.506;2024-01-06T10:09:41;0.90;99.90
19781;DHT22;10050;55.492;13.506;2024-01-06T10:12:07;1.50;99.90
19781;DHT22;10050;55.492;13.506;2024-01-06T10:14:33;1.30;99.90
19781;DHT22;10050;55.492;13.506;2024-01-06T10:17:01;0.20;99.90
19781;DHT22;10050;55.492;13.506;2024-01-06T10:19:26;-0.70;99.90
19781;DHT22;10050;55.492;13.506;2024-01-06T10:21:52;-1.30;99.90
19781;DHT22;10050;55.492;13.506;2024-01-06T10:24:18;-1.80;99.90
19781;DHT22;10050;55.492;13.506;2024-01-06T10:26:45;-1.60;99.90
19781;DHT22;10050;55.492;13.506;2024-01-06T10:29:12;-1.20;99.90
19781;DHT22;10050;55.492;13.506;2024-01-06T10:31:38;-0.70;99.90
19781;DHT22;10050;55.492;13.506;2024-01-06T10:34:09;-0.80;99.90
19781;DHT22;10050;55.492;13.506;2024-01-06T10:36:35;-0.80;99.90
19781;DHT22;10050;55.492;13.506;2024-01-06T10:39:03;-1.10;99.90
19781;DHT22;10050;55.492;13.506;2024-01-06T10:41:29;-1.30;99.90
19781;DHT22;10050;55.492;13.506;2024-01-06T10:43:58;-1.90;99.90
19781;DHT22;10050;55.492;13.506;2024-01-06T10:46:26;-2.20;99.90
19781;DHT22;10050;55.492;13.506;2024-01-06T10:48:55;-2.10;99.90
19781;DHT22;10050;55.492;13.506;2024-01-06T10:51:23;-2.30;99.90
19781;DHT22;10050;55.492;13.506;2024-01-06T10:53:53;-2.40;99.90
19781;DHT22;10050;55.492;13.506;2024-01-06T10:56:19;-2.70;99.90
19781;DHT22;10050;55.492;13.506;2024-01-06T10:58:46;-2.70;99.90
19781;DHT22;10050;55.492;13.506;2024-01-06T11:01:13;-2.60;99.90
19781;DHT22;10050;55.492;13.506;2024-01-06T11:03:40;-2.60;99.90
19781;DHT22;10050;55.492;13.506;2024-01-06T11:06:08;-2.80;99.90
19781;DHT22;10050;55.492;13.506;2024-01-06T11:08:42;-2.90;99.90
19781;DHT22;10050;55.492;13.506;2024-01-06T11:11:18;-3.10;99.90
19781;DHT22;10050;55.492;13.506;2024-01-06T11:13:45;-3.20;99.90
19781;DHT22;10050;55.492;13.506;2024-01-06T11:16:15;-3.20;99.90
19781;DHT22;10050;55.492;13.506;2024-01-06T11:18:58;-3.10;99.90
19781;DHT22;10050;55.492;13.506;2024-01-06T11:21:23;-3.30;99.90
19781;DHT22;10050;55.492;13.506;2024-01-06T11:24:24;-3.30;99.90
19781;DHT22;10050;55.492;13.506;2024-01-06T11:26:55;-3.40;99.90
19781;DHT22;10050;55.492;13.506;2024-01-06T11:29:21;-3.40;99.90
19781;DHT22;10050;55.492;13.506;2024-01-06T11:32:18;-3.50;99.90
19781;DHT22;10050;55.492;13.506;2024-01-06T11:34:51;-3.50;99.90
19781;DHT22;10050;55.492;13.506;2024-01-06T11:40:11;-3.70;99.90
19781;DHT22;10050;55.492;13.506;2024-01-06T11:42:45;-3.70;99.90
19781;DHT22;10050;55.492;13.506;2024-01-06T11:45:11;-3.70;99.90
19781;DHT22;10050;55.492;13.506;2024-01-06T11:47:39;-3.70;99.90
19781;DHT22;10050;55.492;13.506;2024-01-06T11:50:05;-3.60;99.90
19781;DHT22;10050;55.492;13.506;2024-01-06T11:52:31;-3.50;99.90
19781;DHT22;10050;55.492;13.506;2024-01-06T11:54:57;-3.50;99.90
19781;DHT22;10050;55.492;13.506;2024-01-06T11:57:27;-3.50;99.90
19781;DHT22;10050;55.492;13.506;2024-01-06T11:59:53;-3.60;99.90
19781;DHT22;10050;55.492;13.506;2024-01-06T12:02:19;-3.70;99.90
19781;DHT22;10050;55.492;13.506;2024-01-06T12:04:52;-3.70;99.90
19781;DHT22;10050;55.492;13.506;2024-01-06T12:07:19;-3.70;99.90
19781;DHT22;10050;55.492;13.506;2024-01-06T12:09:49;-3.70;99.90
19781;DHT22;10050;55.492;13.506;2024-01-06T12:12:18;-3.60;99.90
19781;DHT22;10050;55.492;13.506;2024-01-06T12:14:44;-3.70;99.90
19781;DHT22;10050;55.492;13.506;2024-01-06T12:17:11;-3.70;99.90
19781;DHT22;10050;55.492;13.506;2024-01-06T12:19:39;-3.90;99.90
19781;DHT22;10050;55.492;13.506;2024-01-06T12:22:10;-3.80;99.90
19781;DHT22;10050;55.492;13.506;2024-01-06T12:24:37;-3.80;99.90
19781;DHT22;10050;55.492;13.506;2024-01-06T12:27:03;-3.90;99.90
19781;DHT22;10050;55.492;13.506;2024-01-06T12:29:29;-3.90;99.90
19781;DHT22;10050;55.492;13.506;2024-01-06T12:31:55;-3.80;99.90
19781;DHT22;10050;55.492;13.506;2024-01-06T12:34:21;-3.90;99.90
19781;DHT22;10050;55.492;13.506;2024-01-06T12:36:47;-3.90;99.90
19781;DHT22;10050;55.492;13.506;2024-01-06T12:39:13;-4.00;99.90
19781;DHT22;10050;55.492;13.506;2024-01-06T12:41:40;-4.00;99.90
19781;DHT22;10050;55.492;13.506;2024-01-06T12:44:06;-4.10;99.90
19781;DHT22;10050;55.492;13.506;2024-01-06T12:46:32;-4.10;99.90
19781;DHT22;10050;55.492;13.506;2024-01-06T12:48:58;-4.10;99.90
19781;DHT22;10050;55.492;13.506;2024-01-06T12:51:24;-4.00;99.90
19781;DHT22;10050;55.492;13.506;2024-01-06T12:53:49;-4.00;99.90
19781;DHT22;10050;55.492;13.506;2024-01-06T12:56:15;-4.00;99.90
19781;DHT22;10050;55.492;13.506;2024-01-06T12:58:41;-4.00;99.90
19781;DHT22;10050;55.492;13.506;2024-01-06T13:01:10;-4.10;99.90
19781;DHT22;10050;55.492;13.506;2024-01-06T13:03:36;-4.00;99.90
19781;DHT22;10050;55.492;13.506;2024-01-06T13:06:02;-4.00;99.90
19781;DHT22;10050;55.492;13.506;2024-01-06T13:08:28;-4.00;99.90
19781;DHT22;10050;55.492;13.506;2024-01-06T13:10:57;-4.10;99.90
19781;DHT22;10050;55.492;13.506;2024-01-06T13:13:23;-4.20;99.90
19781;DHT22;10050;55.492;13.506;2024-01-06T13:15:48;-4.20;99.90
19781;DHT22;10050;55.492;13.506;2024-01-06T13:18:14;-4.30;99.90
19781;DHT22;10050;55.492;13.506;2024-01-06T13:20:42;-4.30;99.90
19781;DHT22;10050;55.492;13.506;2024-01-06T13:23:09;-4.40;99.90
19781;DHT22;10050;55.492;13.506;2024-01-06T13:25:35;-4.40;99.90
19781;DHT22;10050;55.492;13.506;2024-01-06T13:28:01;-4.50;99.90
19781;DHT22;10050;55.492;13.506;2024-01-06T13:30:27;-4.60;99.90
19781;DHT22;10050;55.492;13.506;2024-01-06T13:32:53;-4.50;99.90
19781;DHT22;10050;55.492;13.506;2024-01-06T13:35:22;-4.40;99.90
19781;DHT22;10050;55.492;13.506;2024-01-06T13:37:50;-4.30;99.90
19781;DHT22;10050;55.492;13.506;2024-01-06T13:40:17;-4.30;99.90
19781;DHT22;10050;55.492;13.506;2024-01-06T13:42:48;-4.30;99.90
19781;DHT22;10050;55.492;13.506;2024-01-06T13:45:14;-4.40;99.90
19781;DHT22;10050;55.492;13.506;2024-01-06T13:47:40;-4.30;99.90
19781;DHT22;10050;55.492;13.506;2024-01-06T13:50:12;-4.40;99.90
19781;DHT22;10050;55.492;13.506;2024-01-06T13:52:38;-4.40;99.90
19781;DHT22;10050;55.492;13.506;2024-01-06T13:55:05;-4.40;99.90
19781;DHT22;10050;55.492;13.506;2024-01-06T13:57:31;-4.50;99.90
19781;DHT22;10050;55.492;13.506;2024-01-06T13:59:59;-4.50;99.90
19781;DHT22;10050;55.492;13.506;2024-01-06T14:02:24;-4.50;99.90
19781;DHT22;10050;55.492;13.506;2024-01-06T14:04:51;-4.50;99.90
19781;DHT22;10050;55.492;13.506;2024-01-06T14:07:16;-4.50;99.90
19781;DHT22;10050;55.492;13.506;2024-01-06T14:09:48;-4.50;99.90
19781;DHT22;10050;55.492;13.506;2024-01-06T14:12:14;-4.50;99.90
19781;DHT22;10050;55.492;13.506;2024-01-06T14:14:40;-4.50;99.90
19781;DHT22;10050;55.492;13.506;2024-01-06T14:17:08;-4.30;99.90
19781;DHT22;10050;55.492;13.506;2024-01-06T14:19:34;-4.40;99.90
19781;DHT22;10050;55.492;13.506;2024-01-06T14:22:00;-4.50;99.90
19781;DHT22;10050;55.492;13.506;2024-01-06T14:24:25;-4.50;99.90
19781;DHT22;10050;55.492;13.506;2024-01-06T14:26:53;-4.50;99.90
19781;DHT22;10050;55.492;13.506;2024-01-06T14:29:20;-4.50;99.90
19781;DHT22;10050;55.492;13.506;2024-01-06T14:31:46;-4.50;99.90
19781;DHT22;10050;55.492;13.506;2024-01-06T14:34:12;-4.60;99.90
19781;DHT22;10050;55.492;13.506;2024-01-06T14:36:38;-4.50;99.90
19781;DHT22;10050;55.492;13.506;2024-01-06T14:39:04;-4.50;99.90
19781;DHT22;10050;55.492;13.506;2024-01-06T14:41:32;-4.40;99.90
19781;DHT22;10050;55.492;13.506;2024-01-06T14:43:58;-4.50;99.90
19781;DHT22;10050;55.492;13.506;2024-01-06T14:46:24;-4.60;99.90
19781;DHT22;10050;55.492;13.506;2024-01-06T14:48:49;-4.60;99.90
19781;DHT22;10050;55.492;13.506;2024-01-06T14:51:15;-4.50;99.90
19781;DHT22;10050;55.492;13.506;2024-01-06T14:53:41;-4.70;99.90
19781;DHT22;10050;55.492;13.506;2024-01-06T14:56:07;-4.60;99.90
19781;DHT22;10050;55.492;13.506;2024-01-06T14:58:32;-4.70;99.90
19781;DHT22;10050;55.492;13.506;2024-01-06T15:00:58;-4.70;99.90
19781;DHT22;10050;55.492;13.506;2024-01-06T15:03:25;-4.70;99.90
19781;DHT22;10050;55.492;13.506;2024-01-06T15:05:50;-4.60;99.90
19781;DHT22;10050;55.492;13.506;2024-01-06T15:08:16;-4.60;99.90
19781;DHT22;10050;55.492;13.506;2024-01-06T15:10:41;-4.50;99.90
19781;DHT22;10050;55.492;13.506;2024-01-06T15:13:07;-4.50;99.90
19781;DHT22;10050;55.492;13.506;2024-01-06T15:15:32;-4.50;99.90